Gabriella — OJHP — position and weather

sailwx.info

Track history (hours):
 
Tides and Currents Weather Stations Pressure Air Temp Water Temp Dewpoint Dewpoint Depression Visibility Wind Speed Wind Dir Waves Ship Positions

Gabriella

Last reported at 2016-Aug-27 03:33 UTC. Time now 2016-Aug-27 04:40 UTC.
Position N 59°42' E 023°22'.

Length 172 m; draft 6.5 m.

Type: Passenger vessel. MMSI: 230361000.

Date/timePositionNaut miles runAvg speedWind from/ knotsBaromVisibWave heightAir tempDewpointWater temp
2016-Aug-27 03:33N 59°42' E 023°22'1918.2
2016-Aug-27 02:30N 59°38' E 022°45'1718.1
2016-Aug-27 01:33N 59°34' E 022°12'1817.9
2016-Aug-27 00:33N 59°33' E 021°36'9611.6
2016-Aug-26 16:14N 59°29' E 018°27'710.0
2016-Aug-26 15:33N 59°22' E 018°27'1010.2
2016-Aug-26 14:34N 59°19' E 018°08'1 1.0
2016-Aug-26 13:33N 59°19' E 018°06'0 0.0
2016-Aug-26 12:33N 59°19' E 018°06'0 0.0
2016-Aug-26 11:33N 59°19' E 018°06'0 0.0
2016-Aug-26 10:33N 59°19' E 018°06'0 0.0
2016-Aug-26 09:33N 59°19' E 018°06'0 0.0
2016-Aug-26 08:33N 59°19' E 018°06'2 2.0
2016-Aug-26 07:34N 59°19' E 018°10'10 9.5
2016-Aug-26 06:33N 59°23' E 018°27'82 9.9
2016-Aug-25 22:15N 59°37' E 021°07'1217.5
2016-Aug-25 21:34N 59°34' E 021°30'1717.2
2016-Aug-25 20:34N 59°33' E 022°04'1817.6
2016-Aug-25 19:32N 59°37' E 022°38'1717.6
2016-Aug-25 18:33N 59°40' E 023°12'1817.6
2016-Aug-25 17:33N 59°46' E 023°45'1717.5
2016-Aug-25 16:34N 59°55' E 024°14'1613.7
2016-Aug-25 15:24N 60°04' E 024°41'8 0.9
2016-Aug-25 06:25N 60°01' E 024°57'3317.8
2016-Aug-25 04:33N 59°47' E 023°58'1818.2
2016-Aug-25 03:33N 59°42' E 023°23'1918.2
2016-Aug-25 02:32N 59°38' E 022°47'1818.2
2016-Aug-25 01:33N 59°34' E 022°13'1818.0
2016-Aug-25 00:33N 59°33' E 021°37'2018.3
2016-Aug-24 23:26N 59°37' E 020°57'1617.8
2016-Aug-24 22:33N 59°43' E 020°28'28 9.3
2016-Aug-24 19:33N 59°55' E 019°38'4413.6
2016-Aug-24 16:18N 59°29' E 018°27'7 9.6
2016-Aug-24 15:34N 59°22' E 018°27'1010.0
2016-Aug-24 14:33N 59°19' E 018°08'1 1.0
2016-Aug-24 13:33N 59°19' E 018°06'0 0.0
2016-Aug-24 12:33N 59°19' E 018°06'0 0.0
2016-Aug-24 11:33N 59°19' E 018°06'0 0.0
2016-Aug-24 10:33N 59°19' E 018°06'0 0.0
2016-Aug-24 09:33N 59°19' E 018°06'0 0.0
2016-Aug-24 08:33N 59°19' E 018°06'2 1.9
2016-Aug-24 07:33N 59°19' E 018°10'9 9.3
2016-Aug-24 06:32N 59°23' E 018°27'3611.0
2016-Aug-24 03:15N 59°46' E 019°22'1015.2
2016-Aug-24 02:33N 59°54' E 019°37'4310.6
2016-Aug-23 22:31N 59°38' E 020°56'1717.3
2016-Aug-23 21:34N 59°34' E 021°28'1717.1
2016-Aug-23 20:33N 59°33' E 022°01'1817.8
2016-Aug-23 19:33N 59°36' E 022°36'1817.5
2016-Aug-23 18:33N 59°40' E 023°10'1717.4
2016-Aug-23 17:33N 59°44' E 023°43'1917.4
2016-Aug-23 16:29N 59°49' E 024°19'2217.1
2016-Aug-23 15:13N 60°01' E 024°56'33 3.1
2016-Aug-23 04:34N 59°47' E 023°57'1818.4
2016-Aug-23 03:33N 59°42' E 023°21'2118.4
2016-Aug-23 02:24N 59°37' E 022°40'1618.4
2016-Aug-23 01:31N 59°34' E 022°09'1818.1
2016-Aug-23 00:32N 59°33' E 021°34'1918.9
2016-Aug-22 23:33N 59°37' E 020°58'1817.9
2016-Aug-22 22:32N 59°44' E 020°25'1817.7
2016-Aug-22 21:30N 59°56' E 019°57'40 9.9
2016-Aug-22 17:30N 59°37' E 018°48'1311.0
2016-Aug-22 16:21N 59°29' E 018°27'810.0
2016-Aug-22 15:33N 59°21' E 018°27'1010.1
2016-Aug-22 14:34N 59°19' E 018°07'1 0.7
2016-Aug-22 13:31N 59°19' E 018°06'0 0.0
2016-Aug-22 12:31N 59°19' E 018°06'0 0.0
2016-Aug-22 11:31N 59°19' E 018°06'0 0.0
2016-Aug-22 10:31N 59°19' E 018°06'0 0.0
2016-Aug-22 09:31N 59°19' E 018°06'0 0.0
2016-Aug-22 08:31N 59°19' E 018°06'2 2.1
2016-Aug-22 07:33N 59°19' E 018°10'10 9.3
2016-Aug-22 06:31N 59°24' E 018°27'9310.4
2016-Aug-21 21:33N 59°34' E 021°29'1717.1
2016-Aug-21 20:33N 59°33' E 022°02'3517.3
2016-Aug-21 18:33N 59°39' E 023°09'1717.3
2016-Aug-21 17:33N 59°44' E 023°43'1817.7
2016-Aug-21 16:32N 59°49' E 024°17'2217.3
2016-Aug-21 15:15N 60°00' E 024°55'4 0.5
2016-Aug-21 06:33N 60°04' E 024°58'1717.3
2016-Aug-21 05:33N 59°52' E 024°32'1818.1
2016-Aug-21 04:33N 59°47' E 023°58'1818.3
2016-Aug-21 03:34N 59°42' E 023°23'1818.3
2016-Aug-21 02:34N 59°38' E 022°48'2118.3
2016-Aug-21 01:26N 59°34' E 022°08'1618.1
2016-Aug-21 00:34N 59°33' E 021°37'5417.6
2016-Aug-20 21:28N 59°55' E 019°57'5410.1
2016-Aug-20 16:08N 59°27' E 018°26'5 9.4
2016-Aug-20 15:33N 59°22' E 018°27'1010.1
2016-Aug-20 14:33N 59°19' E 018°08'1 0.9
2016-Aug-20 13:32N 59°19' E 018°06'0 0.0
2016-Aug-20 12:32N 59°19' E 018°06'0 0.0
2016-Aug-20 11:32N 59°19' E 018°06'0 0.0
2016-Aug-20 10:32N 59°19' E 018°06'0 0.0
2016-Aug-20 09:32N 59°19' E 018°06'0 0.0
2016-Aug-20 08:32N 59°19' E 018°06'3 3.0
2016-Aug-20 07:33N 59°20' E 018°11'9 6.5
2016-Aug-20 06:14N 59°26' E 018°23'8310.4
2016-Aug-19 22:16N 59°37' E 021°05'1217.5
2016-Aug-19 21:33N 59°34' E 021°29'1717.3
2016-Aug-19 20:33N 59°33' E 022°03'3817.5
2016-Aug-19 18:25N 59°40' E 023°16'1517.4
2016-Aug-19 17:33N 59°44' E 023°44'1717.4
2016-Aug-19 16:34N 59°49' E 024°17'2117.4
2016-Aug-19 15:22N 59°59' E 024°54'3 0.3
2016-Aug-19 06:24N 60°01' E 024°57'1617.8
2016-Aug-19 05:30N 59°52' E 024°30'1718.4
2016-Aug-19 04:33N 59°47' E 023°57'1818.4
2016-Aug-19 03:33N 59°42' E 023°22'3718.4
2016-Aug-19 01:33N 59°34' E 022°11'1818.2
2016-Aug-19 00:33N 59°33' E 021°35'10010.7
2016-Aug-18 15:09N 59°22' E 018°19'711.2
2016-Aug-18 14:33N 59°19' E 018°07'1 0.6
2016-Aug-18 13:31N 59°19' E 018°06'0 0.0
2016-Aug-18 12:31N 59°19' E 018°06'0 0.0
2016-Aug-18 11:31N 59°19' E 018°06'0 0.0
2016-Aug-18 10:22N 59°19' E 018°06'0 0.0
2016-Aug-18 09:31N 59°19' E 018°06'0 0.0
2016-Aug-18 08:31N 59°19' E 018°06'3 2.8
2016-Aug-18 07:33N 59°20' E 018°11'93 9.8
2016-Aug-17 22:03N 59°36' E 021°12'917.2
2016-Aug-17 21:33N 59°34' E 021°28'1717.1
2016-Aug-17 20:33N 59°33' E 022°02'3517.3
2016-Aug-17 18:33N 59°39' E 023°09'1717.2
2016-Aug-17 17:33N 59°43' E 023°42'1717.2
2016-Aug-17 16:33N 59°48' E 024°15'8 0.7
2016-Aug-17 05:26N 59°52' E 024°28'1618.0
2016-Aug-17 04:33N 59°47' E 023°59'1818.2
2016-Aug-17 03:33N 59°42' E 023°24'  
Track history (hours):
 
Tides and Currents Weather Stations Pressure Air Temp Water Temp Dewpoint Dewpoint Depression Visibility Wind Speed Wind Dir Waves Ship Positions

Gabriella

Last reported at 2016-Aug-27 03:33 UTC. Time now 2016-Aug-27 04:40 UTC.
Position N 59°42' E 023°22'.

Length 172 m; draft 6.5 m.

Type: Passenger vessel. MMSI: 230361000.

Date/timePositionNaut miles runAvg speedWind from/ knotsBaromVisibWave heightAir tempDewpointWater temp
2016-Aug-27 03:33N 59°42' E 023°22'1918.2
2016-Aug-27 02:30N 59°38' E 022°45'1718.1
2016-Aug-27 01:33N 59°34' E 022°12'1817.9
2016-Aug-27 00:33N 59°33' E 021°36'9611.6
2016-Aug-26 16:14N 59°29' E 018°27'710.0
2016-Aug-26 15:33N 59°22' E 018°27'1010.2
2016-Aug-26 14:34N 59°19' E 018°08'1 1.0
2016-Aug-26 13:33N 59°19' E 018°06'0 0.0
2016-Aug-26 12:33N 59°19' E 018°06'0 0.0
2016-Aug-26 11:33N 59°19' E 018°06'0 0.0
2016-Aug-26 10:33N 59°19' E 018°06'0 0.0
2016-Aug-26 09:33N 59°19' E 018°06'0 0.0
2016-Aug-26 08:33N 59°19' E 018°06'2 2.0
2016-Aug-26 07:34N 59°19' E 018°10'10 9.5
2016-Aug-26 06:33N 59°23' E 018°27'82 9.9
2016-Aug-25 22:15N 59°37' E 021°07'1217.5
2016-Aug-25 21:34N 59°34' E 021°30'1717.2
2016-Aug-25 20:34N 59°33' E 022°04'1817.6
2016-Aug-25 19:32N 59°37' E 022°38'1717.6
2016-Aug-25 18:33N 59°40' E 023°12'1817.6
2016-Aug-25 17:33N 59°46' E 023°45'1717.5
2016-Aug-25 16:34N 59°55' E 024°14'1613.7
2016-Aug-25 15:24N 60°04' E 024°41'8 0.9
2016-Aug-25 06:25N 60°01' E 024°57'3317.8
2016-Aug-25 04:33N 59°47' E 023°58'1818.2
2016-Aug-25 03:33N 59°42' E 023°23'1918.2
2016-Aug-25 02:32N 59°38' E 022°47'1818.2
2016-Aug-25 01:33N 59°34' E 022°13'1818.0
2016-Aug-25 00:33N 59°33' E 021°37'2018.3
2016-Aug-24 23:26N 59°37' E 020°57'1617.8
2016-Aug-24 22:33N 59°43' E 020°28'28 9.3
2016-Aug-24 19:33N 59°55' E 019°38'4413.6
2016-Aug-24 16:18N 59°29' E 018°27'7 9.6
2016-Aug-24 15:34N 59°22' E 018°27'1010.0
2016-Aug-24 14:33N 59°19' E 018°08'1 1.0
2016-Aug-24 13:33N 59°19' E 018°06'0 0.0
2016-Aug-24 12:33N 59°19' E 018°06'0 0.0
2016-Aug-24 11:33N 59°19' E 018°06'0 0.0
2016-Aug-24 10:33N 59°19' E 018°06'0 0.0
2016-Aug-24 09:33N 59°19' E 018°06'0 0.0
2016-Aug-24 08:33N 59°19' E 018°06'2 1.9
2016-Aug-24 07:33N 59°19' E 018°10'9 9.3
2016-Aug-24 06:32N 59°23' E 018°27'3611.0
2016-Aug-24 03:15N 59°46' E 019°22'1015.2
2016-Aug-24 02:33N 59°54' E 019°37'4310.6
2016-Aug-23 22:31N 59°38' E 020°56'1717.3
2016-Aug-23 21:34N 59°34' E 021°28'1717.1
2016-Aug-23 20:33N 59°33' E 022°01'1817.8
2016-Aug-23 19:33N 59°36' E 022°36'1817.5
2016-Aug-23 18:33N 59°40' E 023°10'1717.4
2016-Aug-23 17:33N 59°44' E 023°43'1917.4
2016-Aug-23 16:29N 59°49' E 024°19'2217.1
2016-Aug-23 15:13N 60°01' E 024°56'33 3.1
2016-Aug-23 04:34N 59°47' E 023°57'1818.4
2016-Aug-23 03:33N 59°42' E 023°21'2118.4
2016-Aug-23 02:24N 59°37' E 022°40'1618.4
2016-Aug-23 01:31N 59°34' E 022°09'1818.1
2016-Aug-23 00:32N 59°33' E 021°34'1918.9
2016-Aug-22 23:33N 59°37' E 020°58'1817.9
2016-Aug-22 22:32N 59°44' E 020°25'1817.7
2016-Aug-22 21:30N 59°56' E 019°57'40 9.9
2016-Aug-22 17:30N 59°37' E 018°48'1311.0
2016-Aug-22 16:21N 59°29' E 018°27'810.0
2016-Aug-22 15:33N 59°21' E 018°27'1010.1
2016-Aug-22 14:34N 59°19' E 018°07'1 0.7
2016-Aug-22 13:31N 59°19' E 018°06'0 0.0
2016-Aug-22 12:31N 59°19' E 018°06'0 0.0
2016-Aug-22 11:31N 59°19' E 018°06'0 0.0
2016-Aug-22 10:31N 59°19' E 018°06'0 0.0
2016-Aug-22 09:31N 59°19' E 018°06'0 0.0
2016-Aug-22 08:31N 59°19' E 018°06'2 2.1
2016-Aug-22 07:33N 59°19' E 018°10'10 9.3
2016-Aug-22 06:31N 59°24' E 018°27'9310.4
2016-Aug-21 21:33N 59°34' E 021°29'1717.1
2016-Aug-21 20:33N 59°33' E 022°02'3517.3
2016-Aug-21 18:33N 59°39' E 023°09'1717.3
2016-Aug-21 17:33N 59°44' E 023°43'1817.7
2016-Aug-21 16:32N 59°49' E 024°17'2217.3
2016-Aug-21 15:15N 60°00' E 024°55'4 0.5
2016-Aug-21 06:33N 60°04' E 024°58'1717.3
2016-Aug-21 05:33N 59°52' E 024°32'1818.1
2016-Aug-21 04:33N 59°47' E 023°58'1818.3
2016-Aug-21 03:34N 59°42' E 023°23'1818.3
2016-Aug-21 02:34N 59°38' E 022°48'2118.3
2016-Aug-21 01:26N 59°34' E 022°08'1618.1
2016-Aug-21 00:34N 59°33' E 021°37'5417.6
2016-Aug-20 21:28N 59°55' E 019°57'5410.1
2016-Aug-20 16:08N 59°27' E 018°26'5 9.4
2016-Aug-20 15:33N 59°22' E 018°27'1010.1
2016-Aug-20 14:33N 59°19' E 018°08'1 0.9
2016-Aug-20 13:32N 59°19' E 018°06'0 0.0
2016-Aug-20 12:32N 59°19' E 018°06'0 0.0
2016-Aug-20 11:32N 59°19' E 018°06'0 0.0
2016-Aug-20 10:32N 59°19' E 018°06'0 0.0
2016-Aug-20 09:32N 59°19' E 018°06'0 0.0
2016-Aug-20 08:32N 59°19' E 018°06'3 3.0
2016-Aug-20 07:33N 59°20' E 018°11'9 6.5
2016-Aug-20 06:14N 59°26' E 018°23'8310.4
2016-Aug-19 22:16N 59°37' E 021°05'1217.5
2016-Aug-19 21:33N 59°34' E 021°29'1717.3
2016-Aug-19 20:33N 59°33' E 022°03'3817.5
2016-Aug-19 18:25N 59°40' E 023°16'1517.4
2016-Aug-19 17:33N 59°44' E 023°44'1717.4
2016-Aug-19 16:34N 59°49' E 024°17'2117.4
2016-Aug-19 15:22N 59°59' E 024°54'3 0.3
2016-Aug-19 06:24N 60°01' E 024°57'1617.8
2016-Aug-19 05:30N 59°52' E 024°30'1718.4
2016-Aug-19 04:33N 59°47' E 023°57'1818.4
2016-Aug-19 03:33N 59°42' E 023°22'3718.4
2016-Aug-19 01:33N 59°34' E 022°11'1818.2
2016-Aug-19 00:33N 59°33' E 021°35'10010.7
2016-Aug-18 15:09N 59°22' E 018°19'711.2
2016-Aug-18 14:33N 59°19' E 018°07'1 0.6
2016-Aug-18 13:31N 59°19' E 018°06'0 0.0
2016-Aug-18 12:31N 59°19' E 018°06'0 0.0
2016-Aug-18 11:31N 59°19' E 018°06'0 0.0
2016-Aug-18 10:22N 59°19' E 018°06'0 0.0
2016-Aug-18 09:31N 59°19' E 018°06'0 0.0
2016-Aug-18 08:31N 59°19' E 018°06'3 2.8
2016-Aug-18 07:33N 59°20' E 018°11'93 9.8
2016-Aug-17 22:03N 59°36' E 021°12'917.2
2016-Aug-17 21:33N 59°34' E 021°28'1717.1
2016-Aug-17 20:33N 59°33' E 022°02'3517.3
2016-Aug-17 18:33N 59°39' E 023°09'1717.2
2016-Aug-17 17:33N 59°43' E 023°42'1717.2
2016-Aug-17 16:33N 59°48' E 024°15'8 0.7
2016-Aug-17 05:26N 59°52' E 024°28'1618.0
2016-Aug-17 04:33N 59°47' E 023°59'1818.2
2016-Aug-17 03:33N 59°42' E 023°24'  

Dump ship's entire track history